createdAt,value
2017-10-17T00:01:22.910Z,17.90
2017-10-17T00:03:50.447Z,17.80
2017-10-17T00:06:17.975Z,17.80
2017-10-17T00:08:46.294Z,17.70
2017-10-17T00:11:13.790Z,17.70
2017-10-17T00:13:41.378Z,17.80
2017-10-17T00:16:08.914Z,17.70
2017-10-17T00:18:37.206Z,17.60
2017-10-17T00:21:04.794Z,17.60
2017-10-17T00:23:32.345Z,17.80
2017-10-17T00:25:59.882Z,17.80
2017-10-17T00:28:27.482Z,17.80
2017-10-17T00:30:55.013Z,17.70
2017-10-17T00:33:22.555Z,17.70
2017-10-17T00:35:53.843Z,17.80
2017-10-17T00:38:21.368Z,17.80
2017-10-17T00:40:48.994Z,17.90
2017-10-17T00:43:17.314Z,17.80
2017-10-17T00:45:44.895Z,17.80
2017-10-17T00:48:16.963Z,17.80
2017-10-17T00:50:45.451Z,17.80
2017-10-17T00:53:13.031Z,17.90
2017-10-17T00:55:41.343Z,17.90
2017-10-17T00:58:08.887Z,17.90
2017-10-17T01:00:36.442Z,17.80
2017-10-17T01:03:04.024Z,17.80
2017-10-17T01:05:31.564Z,17.70
2017-10-17T01:07:59.103Z,17.70
2017-10-17T01:10:28.445Z,17.70
2017-10-17T01:12:56.001Z,17.70
2017-10-17T01:15:23.579Z,17.70
2017-10-17T01:17:51.110Z,17.60
2017-10-17T01:20:19.583Z,17.70
2017-10-17T01:22:47.137Z,17.50
2017-10-17T01:25:14.678Z,17.50
2017-10-17T01:27:42.998Z,17.50
2017-10-17T01:30:10.574Z,17.40
2017-10-17T01:32:38.120Z,17.50
2017-10-17T01:35:07.203Z,17.40
2017-10-17T01:37:34.762Z,17.40
2017-10-17T01:40:05.940Z,17.40
2017-10-17T01:42:33.508Z,17.50
2017-10-17T01:45:04.588Z,17.40
2017-10-17T01:47:32.147Z,17.40
2017-10-17T01:49:59.695Z,17.40
2017-10-17T01:52:28.196Z,17.30
2017-10-17T01:55:01.659Z,17.30
2017-10-17T01:57:30.140Z,17.40
2017-10-17T02:00:03.269Z,17.30
2017-10-17T02:02:30.806Z,17.30
2017-10-17T02:04:59.082Z,17.40
2017-10-17T02:07:26.659Z,17.30
2017-10-17T02:10:00.677Z,17.20
2017-10-17T02:12:28.245Z,17.30
2017-10-17T02:14:55.810Z,17.20
2017-10-17T02:17:24.142Z,17.20
2017-10-17T02:19:51.714Z,17.10
2017-10-17T02:25:22.139Z,17.20
2017-10-17T02:27:49.715Z,17.20
2017-10-17T02:30:19.843Z,17.10
2017-10-17T02:32:47.407Z,17.00
2017-10-17T02:35:16.422Z,17.00
2017-10-17T02:37:44.005Z,16.90
2017-10-17T02:40:11.580Z,16.90
2017-10-17T02:42:39.901Z,16.90
2017-10-17T02:45:07.482Z,16.90
2017-10-17T02:47:36.541Z,16.90
2017-10-17T02:50:14.899Z,16.90
2017-10-17T02:52:44.298Z,16.90
2017-10-17T02:55:13.531Z,16.80
2017-10-17T02:57:41.063Z,16.80
2017-10-17T03:00:08.631Z,16.70
2017-10-17T03:02:46.981Z,16.70
2017-10-17T03:05:17.870Z,16.50
2017-10-17T03:07:47.197Z,16.50
2017-10-17T03:10:14.830Z,16.50
2017-10-17T03:12:42.403Z,16.40
2017-10-17T03:15:11.739Z,16.30
2017-10-17T03:17:39.368Z,16.20
2017-10-17T03:20:07.731Z,16.30
2017-10-17T03:22:35.274Z,16.30
2017-10-17T03:25:21.526Z,16.30
2017-10-17T03:27:52.569Z,16.30
2017-10-17T03:30:20.116Z,16.20
2017-10-17T03:32:49.606Z,16.20
2017-10-17T03:35:17.174Z,16.20
2017-10-17T03:37:45.476Z,16.20
2017-10-17T03:40:13.051Z,16.20
2017-10-17T03:45:36.051Z,16.20
2017-10-17T03:48:11.047Z,16.10
2017-10-17T03:50:39.506Z,15.90
2017-10-17T03:53:20.606Z,15.90
2017-10-17T03:55:48.943Z,15.80
2017-10-17T03:58:18.282Z,15.80
2017-10-17T04:00:46.666Z,15.80
2017-10-17T04:03:14.267Z,15.80
2017-10-17T04:05:54.273Z,15.70
2017-10-17T04:08:39.283Z,15.70
2017-10-17T04:11:07.574Z,15.70
2017-10-17T04:13:37.886Z,15.80
2017-10-17T04:16:06.153Z,15.80
2017-10-17T04:21:35.285Z,15.80
2017-10-17T04:24:13.511Z,15.80
2017-10-17T04:26:49.565Z,15.70
2017-10-17T04:29:25.778Z,15.60
2017-10-17T04:31:53.325Z,15.70
2017-10-17T04:34:36.702Z,15.80
2017-10-17T04:40:31.202Z,15.80
2017-10-17T04:43:24.505Z,15.80
2017-10-17T04:46:03.673Z,15.80
2017-10-17T04:48:39.711Z,15.90
2017-10-17T04:51:15.926Z,15.90
2017-10-17T04:54:00.726Z,15.90
2017-10-17T04:56:29.029Z,15.90
2017-10-17T05:02:45.802Z,16.00
2017-10-17T05:05:26.939Z,16.00
2017-10-17T05:08:02.097Z,16.00
2017-10-17T05:10:59.426Z,16.00
2017-10-17T05:16:37.332Z,16.00
2017-10-17T05:22:16.327Z,16.00
2017-10-17T05:24:47.590Z,15.90
2017-10-17T05:30:32.818Z,15.90
2017-10-17T05:33:07.030Z,16.00
2017-10-17T05:35:35.328Z,16.00
2017-10-17T05:38:02.863Z,16.00
2017-10-17T05:40:30.436Z,16.00
2017-10-17T05:42:57.974Z,15.90
2017-10-17T05:45:25.555Z,15.90
2017-10-17T05:47:55.806Z,15.80
2017-10-17T05:50:26.045Z,15.80
2017-10-17T05:52:53.616Z,16.00
2017-10-17T05:55:21.178Z,15.90
2017-10-17T05:57:48.751Z,15.80
2017-10-17T06:00:16.326Z,15.80
2017-10-17T06:02:44.653Z,16.00
2017-10-17T06:05:12.965Z,16.00
2017-10-17T06:07:40.538Z,16.00
2017-10-17T06:10:08.098Z,16.00
2017-10-17T06:12:35.637Z,16.00
2017-10-17T06:15:03.990Z,16.00
2017-10-17T06:17:31.523Z,16.00
2017-10-17T06:19:59.853Z,15.90
2017-10-17T06:22:27.383Z,15.90
2017-10-17T06:24:55.711Z,15.80
2017-10-17T06:27:23.278Z,15.80
2017-10-17T06:29:50.830Z,15.80
2017-10-17T06:32:18.402Z,15.80
2017-10-17T06:34:45.941Z,15.80
2017-10-17T06:37:13.500Z,15.80
2017-10-17T06:39:41.066Z,16.10
2017-10-17T06:42:08.611Z,16.00
2017-10-17T06:44:36.201Z,15.90
2017-10-17T06:47:03.747Z,15.90
2017-10-17T06:49:31.274Z,15.90
2017-10-17T06:51:58.856Z,15.90
2017-10-17T06:54:27.162Z,15.90
2017-10-17T06:56:54.730Z,15.90
2017-10-17T06:59:23.069Z,15.90
2017-10-17T07:01:50.634Z,15.90
2017-10-17T07:04:18.171Z,15.90
2017-10-17T07:06:45.740Z,15.90
2017-10-17T07:09:14.054Z,15.90
2017-10-17T07:11:41.599Z,15.90
2017-10-17T07:14:09.945Z,15.90
2017-10-17T07:16:37.492Z,16.00
2017-10-17T07:19:05.043Z,15.90
2017-10-17T07:21:32.622Z,16.00
2017-10-17T07:24:00.188Z,16.00
2017-10-17T07:26:27.723Z,15.90
2017-10-17T07:28:55.312Z,15.90
2017-10-17T07:31:23.625Z,16.00
2017-10-17T07:33:51.170Z,16.00
2017-10-17T07:36:19.515Z,16.00
2017-10-17T07:38:47.053Z,16.00
2017-10-17T07:41:14.663Z,16.00
2017-10-17T07:43:42.208Z,16.00
2017-10-17T07:46:09.750Z,16.10
2017-10-17T07:48:38.095Z,16.10
2017-10-17T07:51:05.659Z,16.10
2017-10-17T07:53:33.234Z,16.00
2017-10-17T07:56:00.773Z,16.10
2017-10-17T07:58:28.383Z,16.10
2017-10-17T08:00:55.915Z,16.30
2017-10-17T08:03:24.278Z,16.30
2017-10-17T08:05:51.858Z,16.30
2017-10-17T08:08:19.420Z,16.30
2017-10-17T08:10:46.955Z,16.50
2017-10-17T08:13:14.528Z,16.40
2017-10-17T08:15:42.117Z,16.40
2017-10-17T08:18:09.653Z,16.40
2017-10-17T08:20:37.217Z,16.50
2017-10-17T08:23:04.758Z,16.50
2017-10-17T08:25:32.356Z,16.50
2017-10-17T08:27:59.895Z,16.50
2017-10-17T08:30:27.441Z,16.50
2017-10-17T08:32:54.998Z,16.50
2017-10-17T08:35:22.537Z,16.50
2017-10-17T08:37:50.887Z,16.70
2017-10-17T08:40:18.432Z,16.60
2017-10-17T08:42:45.990Z,16.70
2017-10-17T08:45:13.567Z,16.70
2017-10-17T08:47:41.117Z,16.80
2017-10-17T08:50:09.446Z,16.90
2017-10-17T08:52:36.990Z,16.90
2017-10-17T08:55:04.519Z,17.00
2017-10-17T08:57:32.082Z,16.90
2017-10-17T08:59:59.610Z,17.00
2017-10-17T09:02:27.183Z,17.10
2017-10-17T09:04:54.755Z,17.10
2017-10-17T09:07:22.322Z,17.10
2017-10-17T09:09:49.859Z,17.10
2017-10-17T09:12:17.428Z,17.10
2017-10-17T09:14:44.971Z,17.00
2017-10-17T09:17:12.556Z,17.10
2017-10-17T09:19:40.093Z,17.20
2017-10-17T09:22:07.626Z,17.20
2017-10-17T09:24:36.806Z,17.40
2017-10-17T09:27:04.347Z,17.30
2017-10-17T09:29:31.889Z,17.40
2017-10-17T09:32:00.226Z,17.30
2017-10-17T09:34:27.774Z,17.30
2017-10-17T09:36:55.346Z,17.40
2017-10-17T09:39:22.878Z,17.40
2017-10-17T09:41:50.466Z,17.50
2017-10-17T09:44:18.767Z,17.50
2017-10-17T09:46:47.067Z,17.50
2017-10-17T09:49:14.955Z,17.50
2017-10-17T09:51:42.482Z,17.60
2017-10-17T09:54:10.047Z,17.60
2017-10-17T09:56:37.606Z,17.60
2017-10-17T09:59:05.144Z,17.70
2017-10-17T10:01:32.729Z,17.80
2017-10-17T10:04:00.266Z,17.90
2017-10-17T10:06:28.565Z,17.70
2017-10-17T10:08:56.134Z,17.70
2017-10-17T10:11:23.678Z,17.80
2017-10-17T10:13:51.238Z,17.90
2017-10-17T10:16:18.824Z,17.80
2017-10-17T10:18:46.368Z,17.90
2017-10-17T10:21:14.675Z,17.90
2017-10-17T10:23:42.252Z,17.90
2017-10-17T10:26:09.782Z,18.00
2017-10-17T10:28:37.347Z,18.00
2017-10-17T10:31:04.880Z,18.10
2017-10-17T10:33:33.223Z,18.10
2017-10-17T10:36:00.791Z,18.10
2017-10-17T10:38:28.364Z,18.30
2017-10-17T10:40:55.900Z,18.30
2017-10-17T10:43:25.189Z,18.30
2017-10-17T10:45:52.759Z,18.30
2017-10-17T10:48:20.299Z,18.30
2017-10-17T10:50:48.756Z,18.20
2017-10-17T10:53:17.057Z,18.30
2017-10-17T10:55:44.586Z,18.30
2017-10-17T10:58:12.142Z,18.40
2017-10-17T11:00:39.752Z,18.30
2017-10-17T11:03:08.087Z,18.30
2017-10-17T11:05:35.619Z,18.30
2017-10-17T11:08:03.197Z,18.40
2017-10-17T11:10:31.490Z,18.50
2017-10-17T11:12:59.042Z,18.50
2017-10-17T11:15:26.624Z,18.60
2017-10-17T11:17:54.155Z,18.60
2017-10-17T11:20:21.687Z,18.50
2017-10-17T11:22:49.266Z,18.50
2017-10-17T11:25:16.806Z,18.70
2017-10-17T11:27:44.340Z,18.70
2017-10-17T11:30:11.964Z,18.90
2017-10-17T11:32:39.511Z,19.00
2017-10-17T11:35:07.871Z,18.70
2017-10-17T11:37:35.426Z,18.70
2017-10-17T11:40:02.986Z,18.80
2017-10-17T11:42:42.390Z,18.80
2017-10-17T11:45:10.010Z,18.90
2017-10-17T11:47:37.559Z,18.80
2017-10-17T11:50:05.859Z,18.90
2017-10-17T11:52:34.199Z,19.00
2017-10-17T11:55:01.738Z,19.00
2017-10-17T11:57:29.312Z,18.90
2017-10-17T11:59:56.936Z,19.00
2017-10-17T12:02:24.475Z,19.10
2017-10-17T12:04:52.011Z,19.10
2017-10-17T12:07:20.362Z,19.20
2017-10-17T12:09:47.897Z,19.10
2017-10-17T12:12:15.460Z,19.00
2017-10-17T12:14:43.086Z,19.00
2017-10-17T12:17:10.614Z,19.00
2017-10-17T12:19:38.163Z,18.90
2017-10-17T12:22:06.504Z,19.00
2017-10-17T12:24:34.131Z,19.00
2017-10-17T12:27:01.716Z,19.10
2017-10-17T12:29:29.266Z,19.20
2017-10-17T12:31:57.599Z,19.20
2017-10-17T12:34:25.147Z,19.20
2017-10-17T12:36:52.718Z,19.20
2017-10-17T12:39:20.260Z,19.30
2017-10-17T12:41:48.603Z,19.10
2017-10-17T12:44:16.145Z,19.10
2017-10-17T12:46:43.724Z,19.20
2017-10-17T12:49:11.265Z,19.20
2017-10-17T12:51:38.837Z,19.40
2017-10-17T12:54:06.383Z,19.30
2017-10-17T12:56:33.954Z,19.30
2017-10-17T12:59:01.498Z,19.30
2017-10-17T13:01:29.070Z,19.40
2017-10-17T13:03:56.612Z,19.30
2017-10-17T13:06:24.909Z,19.40
2017-10-17T13:08:53.236Z,19.30
2017-10-17T13:11:20.775Z,19.30
2017-10-17T13:13:48.347Z,19.40
2017-10-17T13:16:16.730Z,19.30
2017-10-17T13:18:45.070Z,19.30
2017-10-17T13:21:12.633Z,19.30
2017-10-17T13:29:53.461Z,19.20
2017-10-17T13:35:01.283Z,19.30
2017-10-17T13:37:37.770Z,19.30
2017-10-17T13:42:48.292Z,19.40
2017-10-17T13:45:15.863Z,19.30
2017-10-17T13:47:43.398Z,19.40
2017-10-17T13:50:10.978Z,19.30
2017-10-17T13:52:38.573Z,19.30
2017-10-17T13:55:06.118Z,19.30
2017-10-17T13:57:41.412Z,19.30
2017-10-17T14:00:09.006Z,19.30
2017-10-17T14:02:36.578Z,19.40
2017-10-17T14:05:04.158Z,19.30
2017-10-17T14:07:31.700Z,19.30
2017-10-17T14:09:59.250Z,19.20
2017-10-17T14:12:26.981Z,19.10
2017-10-17T14:14:54.592Z,19.10
2017-10-17T14:17:22.952Z,18.90
2017-10-17T14:19:51.224Z,18.90
2017-10-17T14:22:18.766Z,18.80
2017-10-17T14:24:46.370Z,18.90
2017-10-17T14:27:13.947Z,19.00
2017-10-17T14:29:41.479Z,19.10
2017-10-17T14:32:09.920Z,19.00
2017-10-17T14:34:37.456Z,19.00
2017-10-17T14:37:04.994Z,19.10
2017-10-17T14:39:33.337Z,18.80
2017-10-17T14:42:00.918Z,18.80
2017-10-17T14:44:28.457Z,18.80
2017-10-17T14:46:56.037Z,18.80
2017-10-17T14:49:23.606Z,18.80
2017-10-17T14:51:51.199Z,18.80
2017-10-17T14:54:18.766Z,18.90
2017-10-17T14:56:46.320Z,18.90
2017-10-17T14:59:13.938Z,18.90
2017-10-17T15:01:41.478Z,18.70
2017-10-17T15:04:09.042Z,18.80
2017-10-17T15:06:36.647Z,18.90
2017-10-17T15:09:04.202Z,18.80
2017-10-17T15:11:31.817Z,18.80
2017-10-17T15:13:59.360Z,18.90
2017-10-17T15:16:26.893Z,18.80
2017-10-17T15:18:54.463Z,18.80
2017-10-17T15:21:22.003Z,18.70
2017-10-17T15:23:49.582Z,18.50
2017-10-17T15:26:17.113Z,18.40
2017-10-17T15:28:44.683Z,18.30
2017-10-17T15:31:13.004Z,18.30
2017-10-17T15:33:40.543Z,18.20
2017-10-17T15:36:08.118Z,18.20
2017-10-17T15:38:35.662Z,18.10
2017-10-17T15:41:03.215Z,18.00
2017-10-17T15:43:31.567Z,17.90
2017-10-17T15:45:59.103Z,17.90
2017-10-17T15:48:26.671Z,17.80
2017-10-17T15:50:54.210Z,17.80
2017-10-17T15:53:21.754Z,17.70
2017-10-17T15:55:49.343Z,17.70
2017-10-17T15:58:16.883Z,17.70
2017-10-17T16:00:44.414Z,17.60
2017-10-17T16:03:12.754Z,17.60
2017-10-17T16:05:41.052Z,17.60
2017-10-17T16:08:08.627Z,17.60
2017-10-17T16:10:36.164Z,17.60
2017-10-17T16:13:03.754Z,17.70
2017-10-17T16:15:31.286Z,17.70
2017-10-17T16:17:59.586Z,17.80
2017-10-17T16:20:27.148Z,17.80
2017-10-17T16:22:54.683Z,17.70
2017-10-17T16:25:22.544Z,17.60
2017-10-17T16:27:50.073Z,17.60
2017-10-17T16:30:18.413Z,17.60
2017-10-17T16:32:46.142Z,17.50
2017-10-17T16:35:13.710Z,17.40
2017-10-17T16:37:42.038Z,17.30
2017-10-17T16:40:09.611Z,17.30
2017-10-17T16:42:37.134Z,17.20
2017-10-17T16:45:05.440Z,17.20
2017-10-17T16:47:33.126Z,17.20
2017-10-17T16:50:00.802Z,17.20
2017-10-17T16:52:28.381Z,17.20
2017-10-17T16:54:55.917Z,17.20
2017-10-17T16:57:24.263Z,17.10
2017-10-17T16:59:52.555Z,17.00
2017-10-17T17:02:20.090Z,17.00
2017-10-17T17:04:47.660Z,16.90
2017-10-17T17:07:15.235Z,16.80
2017-10-17T17:09:42.819Z,16.80
2017-10-17T17:12:10.390Z,16.70
2017-10-17T17:14:38.059Z,16.60
2017-10-17T17:17:05.662Z,16.60
2017-10-17T17:19:33.193Z,16.40
2017-10-17T17:22:00.763Z,16.30
2017-10-17T17:24:28.294Z,16.30
2017-10-17T17:26:55.831Z,16.30
2017-10-17T17:29:23.398Z,16.20
2017-10-17T17:31:50.934Z,16.30
2017-10-17T17:34:19.279Z,16.20
2017-10-17T17:36:46.819Z,16.10
2017-10-17T17:39:14.397Z,16.10
2017-10-17T17:41:41.963Z,16.00
2017-10-17T17:44:09.547Z,16.00
2017-10-17T17:46:37.115Z,15.90
2017-10-17T17:49:04.690Z,15.90
2017-10-17T17:51:32.225Z,15.90
2017-10-17T17:53:59.764Z,15.90
2017-10-17T17:56:27.341Z,15.90
2017-10-17T17:58:54.910Z,15.90
2017-10-17T18:01:22.519Z,15.80
2017-10-17T18:03:52.055Z,15.80
2017-10-17T18:06:19.586Z,15.80
2017-10-17T18:08:47.175Z,15.70
2017-10-17T18:11:18.319Z,15.60
2017-10-17T18:13:46.857Z,15.60
2017-10-17T18:16:14.398Z,15.70
2017-10-17T18:18:42.744Z,15.70
2017-10-17T18:21:10.272Z,15.70
2017-10-17T18:23:38.599Z,15.40
2017-10-17T18:26:06.135Z,15.40
2017-10-17T18:28:34.481Z,15.30
2017-10-17T18:31:02.011Z,15.30
2017-10-17T18:33:29.543Z,15.30
2017-10-17T18:35:57.122Z,15.20
2017-10-17T18:38:24.658Z,15.30
2017-10-17T18:40:52.233Z,15.30
2017-10-17T18:43:21.658Z,15.20
2017-10-17T18:45:50.729Z,15.20
2017-10-17T18:48:18.330Z,15.10
2017-10-17T18:50:47.379Z,15.10
2017-10-17T18:53:15.049Z,15.00
2017-10-17T18:55:43.494Z,14.80
2017-10-17T18:58:11.348Z,14.90
2017-10-17T19:00:38.947Z,14.80
2017-10-17T19:03:07.367Z,14.70
2017-10-17T19:05:34.931Z,14.70
2017-10-17T19:08:02.521Z,14.60
2017-10-17T19:13:04.984Z,14.60
2017-10-17T19:15:33.307Z,14.60
2017-10-17T19:18:00.850Z,14.60
2017-10-17T19:20:29.186Z,14.60
2017-10-17T19:22:56.719Z,14.60
2017-10-17T19:25:24.287Z,14.60
2017-10-17T19:27:51.851Z,14.60
2017-10-17T19:30:19.387Z,14.60
2017-10-17T19:32:46.946Z,14.60
2017-10-17T19:35:14.471Z,14.50
2017-10-17T19:37:42.804Z,14.40
2017-10-17T19:40:10.325Z,14.40
2017-10-17T19:42:37.856Z,14.30
2017-10-17T19:45:06.199Z,14.10
2017-10-17T19:47:33.747Z,14.10
2017-10-17T19:50:01.339Z,14.10
2017-10-17T19:52:29.650Z,14.20
2017-10-17T19:54:57.186Z,14.10
2017-10-17T19:57:27.239Z,14.10
2017-10-17T19:59:54.768Z,14.10
2017-10-17T20:02:22.345Z,14.10
2017-10-17T20:04:49.872Z,14.20
2017-10-17T20:07:18.284Z,14.30
2017-10-17T20:09:45.852Z,14.20
2017-10-17T20:12:13.384Z,14.10
2017-10-17T20:14:40.921Z,14.10
2017-10-17T20:17:09.267Z,14.10
2017-10-17T20:19:36.835Z,14.10
2017-10-17T20:22:04.442Z,14.30
2017-10-17T20:24:31.987Z,14.20
2017-10-17T20:26:59.527Z,14.10
2017-10-17T20:29:27.854Z,14.00
2017-10-17T20:31:55.395Z,14.00
2017-10-17T20:34:23.197Z,13.90
2017-10-17T20:36:50.736Z,13.70
2017-10-17T20:39:18.286Z,13.70
2017-10-17T20:41:45.844Z,13.60
2017-10-17T20:44:13.726Z,13.60
2017-10-17T20:46:42.059Z,13.70
2017-10-17T20:49:09.590Z,13.70
2017-10-17T20:51:37.922Z,13.70
2017-10-17T20:54:05.456Z,13.70
2017-10-17T20:56:33.133Z,13.70
2017-10-17T20:59:00.663Z,13.70
2017-10-17T21:01:28.549Z,13.60
2017-10-17T21:03:56.078Z,13.60
2017-10-17T21:06:23.620Z,13.50
2017-10-17T21:08:51.184Z,13.50
2017-10-17T21:11:19.948Z,13.40
2017-10-17T21:13:47.536Z,13.40
2017-10-17T21:16:15.083Z,13.40
2017-10-17T21:18:43.388Z,13.40
2017-10-17T21:21:10.947Z,13.30
2017-10-17T21:23:38.499Z,13.30
2017-10-17T21:26:06.063Z,13.30
2017-10-17T21:28:33.593Z,13.30
2017-10-17T21:31:01.949Z,13.30
2017-10-17T21:33:29.495Z,13.30
2017-10-17T21:35:57.032Z,13.30
2017-10-17T21:38:24.630Z,13.30
2017-10-17T21:40:52.195Z,13.40
2017-10-17T21:43:19.725Z,13.50
2017-10-17T21:45:47.288Z,13.40
2017-10-17T21:48:14.871Z,13.30
2017-10-17T21:50:43.188Z,13.10
2017-10-17T21:53:11.682Z,13.10
2017-10-17T21:55:39.242Z,12.90
2017-10-17T21:58:06.781Z,12.90
2017-10-17T22:00:46.283Z,12.80
2017-10-17T22:03:14.615Z,12.80
2017-10-17T22:05:42.183Z,12.80
2017-10-17T22:08:09.715Z,12.90
2017-10-17T22:10:37.250Z,12.90
2017-10-17T22:13:04.817Z,12.90
2017-10-17T22:15:32.574Z,12.90
2017-10-17T22:18:00.175Z,12.80
2017-10-17T22:20:27.729Z,12.70
2017-10-17T22:22:55.258Z,12.70
2017-10-17T22:25:22.820Z,12.70
2017-10-17T22:27:50.359Z,12.70
2017-10-17T22:30:17.914Z,12.70
2017-10-17T22:32:46.249Z,12.70
2017-10-17T22:35:13.780Z,12.60
2017-10-17T22:37:41.355Z,12.70
2017-10-17T22:40:08.892Z,12.70
2017-10-17T22:42:36.438Z,12.60
2017-10-17T22:45:03.958Z,12.50
2017-10-17T22:47:32.270Z,12.50
2017-10-17T22:49:59.830Z,12.50
2017-10-17T22:52:27.372Z,12.50
2017-10-17T22:54:54.931Z,12.50
2017-10-17T22:57:22.466Z,12.50
2017-10-17T22:59:50.812Z,12.60
2017-10-17T23:02:18.364Z,12.50
2017-10-17T23:04:45.951Z,12.50
2017-10-17T23:07:13.481Z,12.40
2017-10-17T23:09:43.885Z,12.40
2017-10-17T23:12:11.462Z,12.40
2017-10-17T23:14:38.997Z,12.40
2017-10-17T23:17:18.490Z,12.40
2017-10-17T23:19:57.820Z,12.30
2017-10-17T23:22:35.399Z,12.30
2017-10-17T23:25:02.947Z,12.30
2017-10-17T23:27:30.527Z,12.20
2017-10-17T23:29:58.074Z,12.20
2017-10-17T23:32:26.214Z,12.20
2017-10-17T23:34:53.784Z,12.30
2017-10-17T23:37:21.377Z,12.20
2017-10-17T23:39:49.695Z,12.20
2017-10-17T23:42:17.237Z,12.20
2017-10-17T23:44:45.594Z,12.30
2017-10-17T23:47:13.898Z,12.30
2017-10-17T23:49:41.455Z,12.30
2017-10-17T23:54:59.283Z,12.20
2017-10-17T23:57:27.604Z,12.00
2017-10-17T23:59:55.164Z,12.00
